sensor_id;sensor_type;location;lat;lon;timestamp;temperature;humidity
20167;DHT22;10243;49.118;8.508;2022-08-19T00:01:46;23.90;95.50
20167;DHT22;10243;49.118;8.508;2022-08-19T00:04:49;23.90;95.00
20167;DHT22;10243;49.118;8.508;2022-08-19T00:07:53;23.90;94.90
20167;DHT22;10243;49.118;8.508;2022-08-19T00:10:56;24.00;95.00
20167;DHT22;10243;49.118;8.508;2022-08-19T00:13:58;24.00;95.10
20167;DHT22;10243;49.118;8.508;2022-08-19T00:17:00;23.90;95.00
20167;DHT22;10243;49.118;8.508;2022-08-19T00:20:04;23.90;94.90
20167;DHT22;10243;49.118;8.508;2022-08-19T00:23:06;23.90;95.30
20167;DHT22;10243;49.118;8.508;2022-08-19T00:26:10;24.00;95.70
20167;DHT22;10243;49.118;8.508;2022-08-19T00:29:15;23.90;95.90
20167;DHT22;10243;49.118;8.508;2022-08-19T00:32:17;23.90;95.30
20167;DHT22;10243;49.118;8.508;2022-08-19T00:35:19;23.90;95.40
20167;DHT22;10243;49.118;8.508;2022-08-19T00:38:21;23.90;95.30
20167;DHT22;10243;49.118;8.508;2022-08-19T00:41:24;23.90;95.40
20167;DHT22;10243;49.118;8.508;2022-08-19T00:44:28;23.90;95.50
20167;DHT22;10243;49.118;8.508;2022-08-19T00:47:30;23.90;96.00
20167;DHT22;10243;49.118;8.508;2022-08-19T00:50:33;23.70;96.30
20167;DHT22;10243;49.118;8.508;2022-08-19T00:53:36;23.70;96.20
20167;DHT22;10243;49.118;8.508;2022-08-19T00:56:40;23.70;96.30
20167;DHT22;10243;49.118;8.508;2022-08-19T00:59:46;23.70;95.90
20167;DHT22;10243;49.118;8.508;2022-08-19T01:02:49;23.60;95.80
20167;DHT22;10243;49.118;8.508;2022-08-19T01:05:52;23.60;95.90
20167;DHT22;10243;49.118;8.508;2022-08-19T01:08:55;23.50;96.00
20167;DHT22;10243;49.118;8.508;2022-08-19T01:11:58;23.50;96.30
20167;DHT22;10243;49.118;8.508;2022-08-19T01:15:00;23.60;96.30
20167;DHT22;10243;49.118;8.508;2022-08-19T01:18:07;23.60;96.30
20167;DHT22;10243;49.118;8.508;2022-08-19T01:21:15;23.70;96.20
20167;DHT22;10243;49.118;8.508;2022-08-19T01:24:19;23.70;96.30
20167;DHT22;10243;49.118;8.508;2022-08-19T01:27:21;23.70;96.20
20167;DHT22;10243;49.118;8.508;2022-08-19T01:30:25;23.70;96.30
20167;DHT22;10243;49.118;8.508;2022-08-19T01:33:27;23.70;96.30
20167;DHT22;10243;49.118;8.508;2022-08-19T01:36:33;23.70;96.20
20167;DHT22;10243;49.118;8.508;2022-08-19T01:39:38;23.60;96.20
20167;DHT22;10243;49.118;8.508;2022-08-19T01:42:40;23.60;96.40
20167;DHT22;10243;49.118;8.508;2022-08-19T01:45:42;23.60;96.40
20167;DHT22;10243;49.118;8.508;2022-08-19T01:48:45;23.70;96.30
20167;DHT22;10243;49.118;8.508;2022-08-19T01:51:47;23.70;96.40
20167;DHT22;10243;49.118;8.508;2022-08-19T01:54:51;23.70;96.30
20167;DHT22;10243;49.118;8.508;2022-08-19T01:57:55;23.70;96.60
20167;DHT22;10243;49.118;8.508;2022-08-19T02:00:59;23.70;96.40
20167;DHT22;10243;49.118;8.508;2022-08-19T02:04:02;23.70;96.40
20167;DHT22;10243;49.118;8.508;2022-08-19T02:07:04;23.70;96.30
20167;DHT22;10243;49.118;8.508;2022-08-19T02:10:11;23.70;96.30
20167;DHT22;10243;49.118;8.508;2022-08-19T02:13:13;23.60;96.20
20167;DHT22;10243;49.118;8.508;2022-08-19T02:16:16;23.60;96.10
20167;DHT22;10243;49.118;8.508;2022-08-19T02:19:18;23.60;96.20
20167;DHT22;10243;49.118;8.508;2022-08-19T02:22:20;23.60;96.20
20167;DHT22;10243;49.118;8.508;2022-08-19T02:25:24;23.50;96.30
20167;DHT22;10243;49.118;8.508;2022-08-19T02:28:25;23.50;96.40
20167;DHT22;10243;49.118;8.508;2022-08-19T02:31:27;23.60;96.60
20167;DHT22;10243;49.118;8.508;2022-08-19T02:34:29;23.40;96.70
20167;DHT22;10243;49.118;8.508;2022-08-19T02:37:31;23.40;96.60
20167;DHT22;10243;49.118;8.508;2022-08-19T02:40:54;23.30;96.80
20167;DHT22;10243;49.118;8.508;2022-08-19T02:43:57;23.20;97.00
20167;DHT22;10243;49.118;8.508;2022-08-19T02:46:59;23.30;97.00
20167;DHT22;10243;49.118;8.508;2022-08-19T02:50:02;23.20;96.90
20167;DHT22;10243;49.118;8.508;2022-08-19T02:53:04;23.20;97.00
20167;DHT22;10243;49.118;8.508;2022-08-19T02:56:09;23.20;96.80
20167;DHT22;10243;49.118;8.508;2022-08-19T02:59:11;23.10;97.10
20167;DHT22;10243;49.118;8.508;2022-08-19T03:02:13;23.10;97.10
20167;DHT22;10243;49.118;8.508;2022-08-19T03:05:16;23.30;96.90
20167;DHT22;10243;49.118;8.508;2022-08-19T03:08:18;23.30;97.00
20167;DHT22;10243;49.118;8.508;2022-08-19T03:11:23;23.40;96.90
20167;DHT22;10243;49.118;8.508;2022-08-19T03:14:25;23.40;96.80
20167;DHT22;10243;49.118;8.508;2022-08-19T03:17:28;23.40;96.90
20167;DHT22;10243;49.118;8.508;2022-08-19T03:20:30;23.40;97.00
20167;DHT22;10243;49.118;8.508;2022-08-19T03:23:33;23.40;97.10
20167;DHT22;10243;49.118;8.508;2022-08-19T03:26:40;23.40;97.00
20167;DHT22;10243;49.118;8.508;2022-08-19T03:29:43;23.30;97.20
20167;DHT22;10243;49.118;8.508;2022-08-19T03:32:45;23.30;97.20
20167;DHT22;10243;49.118;8.508;2022-08-19T03:35:47;23.40;97.10
20167;DHT22;10243;49.118;8.508;2022-08-19T03:39:00;23.40;97.60
20167;DHT22;10243;49.118;8.508;2022-08-19T03:42:04;23.40;97.70
20167;DHT22;10243;49.118;8.508;2022-08-19T03:45:07;23.40;97.40
20167;DHT22;10243;49.118;8.508;2022-08-19T03:48:10;23.30;97.50
20167;DHT22;10243;49.118;8.508;2022-08-19T03:51:16;23.50;97.50
20167;DHT22;10243;49.118;8.508;2022-08-19T03:54:20;23.40;97.60
20167;DHT22;10243;49.118;8.508;2022-08-19T03:57:24;23.40;97.60
20167;DHT22;10243;49.118;8.508;2022-08-19T04:00:26;23.40;97.70
20167;DHT22;10243;49.118;8.508;2022-08-19T04:03:28;23.30;97.80
20167;DHT22;10243;49.118;8.508;2022-08-19T04:06:32;23.30;97.90
20167;DHT22;10243;49.118;8.508;2022-08-19T04:09:34;23.30;98.00
20167;DHT22;10243;49.118;8.508;2022-08-19T04:12:38;23.20;98.00
20167;DHT22;10243;49.118;8.508;2022-08-19T04:15:41;23.20;98.30
20167;DHT22;10243;49.118;8.508;2022-08-19T04:18:43;23.10;98.40
20167;DHT22;10243;49.118;8.508;2022-08-19T04:21:46;23.10;98.50
20167;DHT22;10243;49.118;8.508;2022-08-19T04:24:48;23.10;98.40
20167;DHT22;10243;49.118;8.508;2022-08-19T04:27:52;23.20;98.40
20167;DHT22;10243;49.118;8.508;2022-08-19T04:30:54;23.20;98.40
20167;DHT22;10243;49.118;8.508;2022-08-19T04:33:59;23.20;98.40
20167;DHT22;10243;49.118;8.508;2022-08-19T04:37:05;23.20;98.30
20167;DHT22;10243;49.118;8.508;2022-08-19T04:40:09;23.20;98.50
20167;DHT22;10243;49.118;8.508;2022-08-19T04:43:30;23.20;98.60
20167;DHT22;10243;49.118;8.508;2022-08-19T04:46:32;23.20;98.70
20167;DHT22;10243;49.118;8.508;2022-08-19T04:49:34;23.30;99.20
20167;DHT22;10243;49.118;8.508;2022-08-19T04:52:36;23.30;99.10
20167;DHT22;10243;49.118;8.508;2022-08-19T04:55:42;23.30;98.80
20167;DHT22;10243;49.118;8.508;2022-08-19T04:58:46;23.30;98.50
20167;DHT22;10243;49.118;8.508;2022-08-19T05:01:48;23.30;98.80
20167;DHT22;10243;49.118;8.508;2022-08-19T05:04:51;23.40;98.50
20167;DHT22;10243;49.118;8.508;2022-08-19T05:07:53;23.40;98.90
20167;DHT22;10243;49.118;8.508;2022-08-19T05:10:56;23.40;98.30
20167;DHT22;10243;49.118;8.508;2022-08-19T05:14:00;23.50;98.50
20167;DHT22;10243;49.118;8.508;2022-08-19T05:17:02;23.50;98.50
20167;DHT22;10243;49.118;8.508;2022-08-19T05:20:05;23.40;98.50
20167;DHT22;10243;49.118;8.508;2022-08-19T05:23:25;23.30;98.40
20167;DHT22;10243;49.118;8.508;2022-08-19T05:26:27;23.30;98.50
20167;DHT22;10243;49.118;8.508;2022-08-19T05:29:30;23.40;98.60
20167;DHT22;10243;49.118;8.508;2022-08-19T05:32:33;23.40;98.20
20167;DHT22;10243;49.118;8.508;2022-08-19T05:35:36;23.40;98.40
20167;DHT22;10243;49.118;8.508;2022-08-19T05:38:38;23.40;98.30
20167;DHT22;10243;49.118;8.508;2022-08-19T05:41:41;23.40;98.10
20167;DHT22;10243;49.118;8.508;2022-08-19T05:44:44;23.50;98.20
20167;DHT22;10243;49.118;8.508;2022-08-19T05:47:47;23.40;98.00
20167;DHT22;10243;49.118;8.508;2022-08-19T05:50:49;23.30;98.10
20167;DHT22;10243;49.118;8.508;2022-08-19T05:53:51;23.40;98.10
20167;DHT22;10243;49.118;8.508;2022-08-19T05:56:53;23.40;98.10
20167;DHT22;10243;49.118;8.508;2022-08-19T05:59:57;23.40;97.70
20167;DHT22;10243;49.118;8.508;2022-08-19T06:03:00;23.40;98.00
20167;DHT22;10243;49.118;8.508;2022-08-19T06:06:03;23.50;97.90
20167;DHT22;10243;49.118;8.508;2022-08-19T06:09:07;23.50;98.00
20167;DHT22;10243;49.118;8.508;2022-08-19T06:12:10;23.50;97.60
20167;DHT22;10243;49.118;8.508;2022-08-19T06:15:14;23.50;97.80
20167;DHT22;10243;49.118;8.508;2022-08-19T06:18:16;23.50;97.40
20167;DHT22;10243;49.118;8.508;2022-08-19T06:21:19;23.50;97.80
20167;DHT22;10243;49.118;8.508;2022-08-19T06:24:23;23.50;97.50
20167;DHT22;10243;49.118;8.508;2022-08-19T06:27:26;23.50;97.80
20167;DHT22;10243;49.118;8.508;2022-08-19T06:30:31;23.50;97.50
20167;DHT22;10243;49.118;8.508;2022-08-19T06:33:33;23.50;97.80
20167;DHT22;10243;49.118;8.508;2022-08-19T06:36:37;23.40;98.00
20167;DHT22;10243;49.118;8.508;2022-08-19T06:39:42;23.60;98.20
20167;DHT22;10243;49.118;8.508;2022-08-19T06:42:44;23.50;97.80
20167;DHT22;10243;49.118;8.508;2022-08-19T06:45:47;23.60;97.90
20167;DHT22;10243;49.118;8.508;2022-08-19T06:48:52;23.50;97.80
20167;DHT22;10243;49.118;8.508;2022-08-19T06:51:55;23.60;97.80
20167;DHT22;10243;49.118;8.508;2022-08-19T06:54:58;23.50;97.40
20167;DHT22;10243;49.118;8.508;2022-08-19T06:58:02;23.60;97.80
20167;DHT22;10243;49.118;8.508;2022-08-19T07:01:06;23.80;97.70
20167;DHT22;10243;49.118;8.508;2022-08-19T07:04:08;23.90;97.20
20167;DHT22;10243;49.118;8.508;2022-08-19T07:07:13;24.00;97.00
20167;DHT22;10243;49.118;8.508;2022-08-19T07:10:16;24.10;96.50
20167;DHT22;10243;49.118;8.508;2022-08-19T07:13:18;24.10;96.60
20167;DHT22;10243;49.118;8.508;2022-08-19T07:16:21;24.20;96.40
20167;DHT22;10243;49.118;8.508;2022-08-19T07:19:24;24.30;95.90
20167;DHT22;10243;49.118;8.508;2022-08-19T07:22:27;24.10;95.60
20167;DHT22;10243;49.118;8.508;2022-08-19T07:25:29;24.10;95.70
20167;DHT22;10243;49.118;8.508;2022-08-19T07:28:31;24.20;95.40
20167;DHT22;10243;49.118;8.508;2022-08-19T07:31:34;24.20;95.20
20167;DHT22;10243;49.118;8.508;2022-08-19T07:34:37;24.10;95.10
20167;DHT22;10243;49.118;8.508;2022-08-19T07:37:39;24.10;95.30
20167;DHT22;10243;49.118;8.508;2022-08-19T07:40:44;24.10;95.20
20167;DHT22;10243;49.118;8.508;2022-08-19T07:43:48;24.10;95.00
20167;DHT22;10243;49.118;8.508;2022-08-19T07:46:53;24.00;95.10
20167;DHT22;10243;49.118;8.508;2022-08-19T07:49:56;24.20;95.20
20167;DHT22;10243;49.118;8.508;2022-08-19T07:52:58;24.20;94.90
20167;DHT22;10243;49.118;8.508;2022-08-19T07:56:00;24.30;95.00
20167;DHT22;10243;49.118;8.508;2022-08-19T07:59:04;24.40;95.20
20167;DHT22;10243;49.118;8.508;2022-08-19T08:02:08;24.30;95.00
20167;DHT22;10243;49.118;8.508;2022-08-19T08:05:10;24.30;94.80
20167;DHT22;10243;49.118;8.508;2022-08-19T08:08:31;24.40;94.80
20167;DHT22;10243;49.118;8.508;2022-08-19T08:11:52;24.40;94.80
20167;DHT22;10243;49.118;8.508;2022-08-19T08:14:56;24.40;94.90
20167;DHT22;10243;49.118;8.508;2022-08-19T08:17:59;24.30;95.00
20167;DHT22;10243;49.118;8.508;2022-08-19T08:21:02;24.20;95.30
20167;DHT22;10243;49.118;8.508;2022-08-19T08:24:04;24.20;95.10
20167;DHT22;10243;49.118;8.508;2022-08-19T08:27:06;24.40;95.00
20167;DHT22;10243;49.118;8.508;2022-08-19T08:30:08;24.40;94.90
20167;DHT22;10243;49.118;8.508;2022-08-19T08:33:12;24.60;94.90
20167;DHT22;10243;49.118;8.508;2022-08-19T08:36:14;24.70;94.40
20167;DHT22;10243;49.118;8.508;2022-08-19T08:39:18;24.80;94.00
20167;DHT22;10243;49.118;8.508;2022-08-19T08:42:24;24.90;93.80
20167;DHT22;10243;49.118;8.508;2022-08-19T08:45:29;24.90;93.50
20167;DHT22;10243;49.118;8.508;2022-08-19T08:48:37;25.00;93.60
20167;DHT22;10243;49.118;8.508;2022-08-19T08:51:43;25.10;93.50
20167;DHT22;10243;49.118;8.508;2022-08-19T08:54:47;25.20;93.40
20167;DHT22;10243;49.118;8.508;2022-08-19T08:57:54;25.20;93.00
20167;DHT22;10243;49.118;8.508;2022-08-19T09:00:57;25.30;93.00
20167;DHT22;10243;49.118;8.508;2022-08-19T09:04:02;25.20;93.10
20167;DHT22;10243;49.118;8.508;2022-08-19T09:07:24;25.30;92.60
20167;DHT22;10243;49.118;8.508;2022-08-19T09:10:31;25.20;92.90
20167;DHT22;10243;49.118;8.508;2022-08-19T09:13:44;25.30;93.00
20167;DHT22;10243;49.118;8.508;2022-08-19T09:16:50;25.50;92.70
20167;DHT22;10243;49.118;8.508;2022-08-19T09:19:58;25.60;92.60
20167;DHT22;10243;49.118;8.508;2022-08-19T09:23:01;25.70;92.40
20167;DHT22;10243;49.118;8.508;2022-08-19T09:26:07;25.90;92.10
20167;DHT22;10243;49.118;8.508;2022-08-19T09:29:10;25.90;91.60
20167;DHT22;10243;49.118;8.508;2022-08-19T09:32:12;26.10;91.30
20167;DHT22;10243;49.118;8.508;2022-08-19T09:35:16;26.30;91.20
20167;DHT22;10243;49.118;8.508;2022-08-19T09:38:19;26.40;91.20
20167;DHT22;10243;49.118;8.508;2022-08-19T09:41:25;26.30;90.90
20167;DHT22;10243;49.118;8.508;2022-08-19T09:44:27;26.10;90.70
20167;DHT22;10243;49.118;8.508;2022-08-19T09:47:29;26.10;90.00
20167;DHT22;10243;49.118;8.508;2022-08-19T09:50:34;26.30;90.00
20167;DHT22;10243;49.118;8.508;2022-08-19T09:53:39;26.40;89.90
20167;DHT22;10243;49.118;8.508;2022-08-19T09:56:41;26.30;90.00
20167;DHT22;10243;49.118;8.508;2022-08-19T09:59:43;26.30;90.00
20167;DHT22;10243;49.118;8.508;2022-08-19T10:02:45;26.70;89.50
20167;DHT22;10243;49.118;8.508;2022-08-19T10:05:48;26.80;88.60
20167;DHT22;10243;49.118;8.508;2022-08-19T10:08:52;26.70;88.00
20167;DHT22;10243;49.118;8.508;2022-08-19T10:11:53;26.40;88.90
20167;DHT22;10243;49.118;8.508;2022-08-19T10:14:55;26.40;89.50
20167;DHT22;10243;49.118;8.508;2022-08-19T10:17:57;26.70;88.10
20167;DHT22;10243;49.118;8.508;2022-08-19T10:21:05;26.90;88.20
20167;DHT22;10243;49.118;8.508;2022-08-19T10:24:09;26.80;87.90
20167;DHT22;10243;49.118;8.508;2022-08-19T10:27:11;26.90;87.20
20167;DHT22;10243;49.118;8.508;2022-08-19T10:30:14;27.00;87.50
20167;DHT22;10243;49.118;8.508;2022-08-19T10:33:16;26.70;87.40
20167;DHT22;10243;49.118;8.508;2022-08-19T10:36:21;26.70;87.00
20167;DHT22;10243;49.118;8.508;2022-08-19T10:39:23;26.60;86.40
20167;DHT22;10243;49.118;8.508;2022-08-19T10:42:25;26.60;86.40
20167;DHT22;10243;49.118;8.508;2022-08-19T10:45:27;26.80;86.20
20167;DHT22;10243;49.118;8.508;2022-08-19T10:48:29;27.10;86.20
20167;DHT22;10243;49.118;8.508;2022-08-19T10:51:32;27.20;84.00
20167;DHT22;10243;49.118;8.508;2022-08-19T10:54:52;27.30;85.00
20167;DHT22;10243;49.118;8.508;2022-08-19T10:58:12;27.40;85.30
20167;DHT22;10243;49.118;8.508;2022-08-19T11:01:14;27.70;84.80
20167;DHT22;10243;49.118;8.508;2022-08-19T11:04:17;27.60;84.80
20167;DHT22;10243;49.118;8.508;2022-08-19T11:07:21;27.50;82.60
20167;DHT22;10243;49.118;8.508;2022-08-19T11:10:24;27.50;84.30
20167;DHT22;10243;49.118;8.508;2022-08-19T11:13:26;27.50;84.00
20167;DHT22;10243;49.118;8.508;2022-08-19T11:16:29;27.30;83.50
20167;DHT22;10243;49.118;8.508;2022-08-19T11:19:32;27.40;83.10
20167;DHT22;10243;49.118;8.508;2022-08-19T11:22:36;27.50;83.20
20167;DHT22;10243;49.118;8.508;2022-08-19T11:25:38;27.70;83.10
20167;DHT22;10243;49.118;8.508;2022-08-19T11:28:40;27.80;82.70
20167;DHT22;10243;49.118;8.508;2022-08-19T11:31:45;27.80;82.40
20167;DHT22;10243;49.118;8.508;2022-08-19T11:34:47;27.80;82.00
20167;DHT22;10243;49.118;8.508;2022-08-19T11:37:50;27.80;81.90
20167;DHT22;10243;49.118;8.508;2022-08-19T11:40:56;27.90;81.80
20167;DHT22;10243;49.118;8.508;2022-08-19T11:43:58;27.90;80.20
20167;DHT22;10243;49.118;8.508;2022-08-19T11:47:00;27.90;78.80
20167;DHT22;10243;49.118;8.508;2022-08-19T11:50:03;28.00;78.40
20167;DHT22;10243;49.118;8.508;2022-08-19T11:53:07;28.10;78.80
20167;DHT22;10243;49.118;8.508;2022-08-19T11:56:11;28.30;78.90
20167;DHT22;10243;49.118;8.508;2022-08-19T11:59:13;28.40;78.60
20167;DHT22;10243;49.118;8.508;2022-08-19T12:02:15;28.30;78.20
20167;DHT22;10243;49.118;8.508;2022-08-19T12:05:17;28.30;78.60
20167;DHT22;10243;49.118;8.508;2022-08-19T12:08:20;28.20;77.90
20167;DHT22;10243;49.118;8.508;2022-08-19T12:11:22;28.00;78.30
20167;DHT22;10243;49.118;8.508;2022-08-19T12:14:24;28.10;78.10
20167;DHT22;10243;49.118;8.508;2022-08-19T12:17:28;28.10;78.50
20167;DHT22;10243;49.118;8.508;2022-08-19T12:20:34;28.40;78.00
20167;DHT22;10243;49.118;8.508;2022-08-19T12:23:38;28.30;77.30
20167;DHT22;10243;49.118;8.508;2022-08-19T12:26:40;28.10;77.50
20167;DHT22;10243;49.118;8.508;2022-08-19T12:29:42;28.00;77.50
20167;DHT22;10243;49.118;8.508;2022-08-19T12:32:44;27.90;77.10
20167;DHT22;10243;49.118;8.508;2022-08-19T12:35:46;28.20;76.10
20167;DHT22;10243;49.118;8.508;2022-08-19T12:38:50;28.20;75.00
20167;DHT22;10243;49.118;8.508;2022-08-19T12:41:52;28.50;76.30
20167;DHT22;10243;49.118;8.508;2022-08-19T12:44:54;28.60;77.80
20167;DHT22;10243;49.118;8.508;2022-08-19T12:47:56;28.80;75.70
20167;DHT22;10243;49.118;8.508;2022-08-19T12:50:58;28.70;75.50
20167;DHT22;10243;49.118;8.508;2022-08-19T12:54:02;28.50;78.00
20167;DHT22;10243;49.118;8.508;2022-08-19T12:57:06;28.50;75.90
20167;DHT22;10243;49.118;8.508;2022-08-19T13:00:10;28.60;75.80
20167;DHT22;10243;49.118;8.508;2022-08-19T13:03:13;28.60;75.80
20167;DHT22;10243;49.118;8.508;2022-08-19T13:06:15;28.50;75.40
20167;DHT22;10243;49.118;8.508;2022-08-19T13:09:18;28.30;75.20
20167;DHT22;10243;49.118;8.508;2022-08-19T13:12:20;28.10;75.20
20167;DHT22;10243;49.118;8.508;2022-08-19T13:15:23;28.00;75.70
20167;DHT22;10243;49.118;8.508;2022-08-19T13:18:25;27.90;76.00
20167;DHT22;10243;49.118;8.508;2022-08-19T13:21:27;27.90;75.90
20167;DHT22;10243;49.118;8.508;2022-08-19T13:24:31;28.00;76.10
20167;DHT22;10243;49.118;8.508;2022-08-19T13:27:34;27.90;75.80
20167;DHT22;10243;49.118;8.508;2022-08-19T13:30:36;28.00;75.70
20167;DHT22;10243;49.118;8.508;2022-08-19T13:33:55;28.00;75.70
20167;DHT22;10243;49.118;8.508;2022-08-19T13:36:57;27.90;75.40
20167;DHT22;10243;49.118;8.508;2022-08-19T13:40:01;28.00;75.60
20167;DHT22;10243;49.118;8.508;2022-08-19T13:43:04;28.20;75.30
20167;DHT22;10243;49.118;8.508;2022-08-19T13:46:09;28.30;73.80
20167;DHT22;10243;49.118;8.508;2022-08-19T13:49:14;28.40;71.80
20167;DHT22;10243;49.118;8.508;2022-08-19T13:52:16;28.60;70.90
20167;DHT22;10243;49.118;8.508;2022-08-19T13:55:21;28.70;70.20
20167;DHT22;10243;49.118;8.508;2022-08-19T13:58:23;28.90;70.30
20167;DHT22;10243;49.118;8.508;2022-08-19T14:01:25;29.00;69.70
20167;DHT22;10243;49.118;8.508;2022-08-19T14:04:27;29.00;70.30
20167;DHT22;10243;49.118;8.508;2022-08-19T14:07:29;29.20;71.30
20167;DHT22;10243;49.118;8.508;2022-08-19T14:10:33;29.30;70.40
20167;DHT22;10243;49.118;8.508;2022-08-19T14:13:35;29.40;69.60
20167;DHT22;10243;49.118;8.508;2022-08-19T14:16:37;29.40;69.20
20167;DHT22;10243;49.118;8.508;2022-08-19T14:19:39;29.50;68.20
20167;DHT22;10243;49.118;8.508;2022-08-19T14:22:42;29.60;68.90
20167;DHT22;10243;49.118;8.508;2022-08-19T14:25:46;29.60;68.10
20167;DHT22;10243;49.118;8.508;2022-08-19T14:28:49;29.60;68.60
20167;DHT22;10243;49.118;8.508;2022-08-19T14:31:52;29.40;69.20
20167;DHT22;10243;49.118;8.508;2022-08-19T14:34:54;29.60;67.70
20167;DHT22;10243;49.118;8.508;2022-08-19T14:37:56;29.60;68.60
20167;DHT22;10243;49.118;8.508;2022-08-19T14:41:15;29.70;69.10
20167;DHT22;10243;49.118;8.508;2022-08-19T14:44:18;29.60;68.20
20167;DHT22;10243;49.118;8.508;2022-08-19T14:47:21;29.50;67.60
20167;DHT22;10243;49.118;8.508;2022-08-19T14:50:26;29.60;67.90
20167;DHT22;10243;49.118;8.508;2022-08-19T14:53:29;29.60;67.50
20167;DHT22;10243;49.118;8.508;2022-08-19T14:56:33;29.70;67.50
20167;DHT22;10243;49.118;8.508;2022-08-19T14:59:36;29.90;67.30
20167;DHT22;10243;49.118;8.508;2022-08-19T15:02:40;29.90;67.30
20167;DHT22;10243;49.118;8.508;2022-08-19T15:05:45;30.00;66.90
20167;DHT22;10243;49.118;8.508;2022-08-19T15:08:48;30.00;67.00
20167;DHT22;10243;49.118;8.508;2022-08-19T15:11:54;30.00;66.80
20167;DHT22;10243;49.118;8.508;2022-08-19T15:14:56;29.90;67.00
20167;DHT22;10243;49.118;8.508;2022-08-19T15:17:58;29.80;66.50
20167;DHT22;10243;49.118;8.508;2022-08-19T15:21:03;29.60;67.00
20167;DHT22;10243;49.118;8.508;2022-08-19T15:24:05;29.40;67.00
20167;DHT22;10243;49.118;8.508;2022-08-19T15:27:09;29.30;67.70
20167;DHT22;10243;49.118;8.508;2022-08-19T15:30:12;29.20;68.20
20167;DHT22;10243;49.118;8.508;2022-08-19T15:33:13;29.20;68.30
20167;DHT22;10243;49.118;8.508;2022-08-19T15:36:16;29.00;67.90
20167;DHT22;10243;49.118;8.508;2022-08-19T15:39:18;29.10;68.70
20167;DHT22;10243;49.118;8.508;2022-08-19T15:42:21;29.00;69.30
20167;DHT22;10243;49.118;8.508;2022-08-19T15:45:23;28.90;69.80
20167;DHT22;10243;49.118;8.508;2022-08-19T15:48:32;28.90;68.40
20167;DHT22;10243;49.118;8.508;2022-08-19T15:51:34;28.90;68.40
20167;DHT22;10243;49.118;8.508;2022-08-19T15:54:38;28.90;69.00
20167;DHT22;10243;49.118;8.508;2022-08-19T15:57:41;28.90;68.80
20167;DHT22;10243;49.118;8.508;2022-08-19T16:01:12;29.00;69.70
20167;DHT22;10243;49.118;8.508;2022-08-19T16:04:32;29.00;69.20
20167;DHT22;10243;49.118;8.508;2022-08-19T16:07:52;29.00;69.10
20167;DHT22;10243;49.118;8.508;2022-08-19T16:10:54;29.00;69.40
20167;DHT22;10243;49.118;8.508;2022-08-19T16:13:58;29.10;68.80
20167;DHT22;10243;49.118;8.508;2022-08-19T16:17:01;29.20;68.40
20167;DHT22;10243;49.118;8.508;2022-08-19T16:20:05;29.60;68.70
20167;DHT22;10243;49.118;8.508;2022-08-19T16:23:08;29.80;67.80
20167;DHT22;10243;49.118;8.508;2022-08-19T16:26:10;29.90;67.70
20167;DHT22;10243;49.118;8.508;2022-08-19T16:29:14;29.90;67.40
20167;DHT22;10243;49.118;8.508;2022-08-19T16:32:17;29.70;67.30
20167;DHT22;10243;49.118;8.508;2022-08-19T16:35:19;29.50;67.20
20167;DHT22;10243;49.118;8.508;2022-08-19T16:38:21;29.40;67.40
20167;DHT22;10243;49.118;8.508;2022-08-19T16:41:23;29.30;68.10
20167;DHT22;10243;49.118;8.508;2022-08-19T16:44:28;29.30;68.50
20167;DHT22;10243;49.118;8.508;2022-08-19T16:47:30;29.30;68.30
20167;DHT22;10243;49.118;8.508;2022-08-19T16:50:32;29.30;67.90
20167;DHT22;10243;49.118;8.508;2022-08-19T16:53:35;29.90;67.40
20167;DHT22;10243;49.118;8.508;2022-08-19T16:56:37;29.80;67.10
20167;DHT22;10243;49.118;8.508;2022-08-19T16:59:40;29.70;67.60
20167;DHT22;10243;49.118;8.508;2022-08-19T17:02:44;29.50;67.70
20167;DHT22;10243;49.118;8.508;2022-08-19T17:05:47;29.20;67.50
20167;DHT22;10243;49.118;8.508;2022-08-19T17:08:50;29.20;69.00
20167;DHT22;10243;49.118;8.508;2022-08-19T17:11:53;29.20;69.90
20167;DHT22;10243;49.118;8.508;2022-08-19T17:14:57;29.00;68.60
20167;DHT22;10243;49.118;8.508;2022-08-19T17:17:59;28.90;69.20
20167;DHT22;10243;49.118;8.508;2022-08-19T17:21:01;28.90;71.10
20167;DHT22;10243;49.118;8.508;2022-08-19T17:24:05;28.90;69.20
20167;DHT22;10243;49.118;8.508;2022-08-19T17:27:08;28.90;69.30
20167;DHT22;10243;49.118;8.508;2022-08-19T17:30:11;28.90;71.10
20167;DHT22;10243;49.118;8.508;2022-08-19T17:33:14;28.70;69.80
20167;DHT22;10243;49.118;8.508;2022-08-19T17:36:16;28.70;70.60
20167;DHT22;10243;49.118;8.508;2022-08-19T17:39:18;28.70;70.40
20167;DHT22;10243;49.118;8.508;2022-08-19T17:42:20;28.70;69.60
20167;DHT22;10243;49.118;8.508;2022-08-19T17:45:23;28.60;70.50
20167;DHT22;10243;49.118;8.508;2022-08-19T17:48:25;28.50;71.20
20167;DHT22;10243;49.118;8.508;2022-08-19T17:51:39;28.50;70.10
20167;DHT22;10243;49.118;8.508;2022-08-19T17:54:41;28.40;72.30
20167;DHT22;10243;49.118;8.508;2022-08-19T17:57:43;28.40;72.70
20167;DHT22;10243;49.118;8.508;2022-08-19T18:00:46;28.30;71.30
20167;DHT22;10243;49.118;8.508;2022-08-19T18:03:48;28.20;73.90
20167;DHT22;10243;49.118;8.508;2022-08-19T18:06:51;28.20;74.50
20167;DHT22;10243;49.118;8.508;2022-08-19T18:09:53;28.00;73.90
20167;DHT22;10243;49.118;8.508;2022-08-19T18:12:55;28.00;74.20
20167;DHT22;10243;49.118;8.508;2022-08-19T18:15:59;27.90;75.50
20167;DHT22;10243;49.118;8.508;2022-08-19T18:19:01;27.70;79.10
20167;DHT22;10243;49.118;8.508;2022-08-19T18:22:03;27.50;77.20
20167;DHT22;10243;49.118;8.508;2022-08-19T18:25:08;27.40;79.60
20167;DHT22;10243;49.118;8.508;2022-08-19T18:28:11;27.30;79.20
20167;DHT22;10243;49.118;8.508;2022-08-19T18:31:14;27.20;83.90
20167;DHT22;10243;49.118;8.508;2022-08-19T18:34:16;27.10;78.70
20167;DHT22;10243;49.118;8.508;2022-08-19T18:37:18;26.90;80.60
20167;DHT22;10243;49.118;8.508;2022-08-19T18:40:21;26.80;84.80
20167;DHT22;10243;49.118;8.508;2022-08-19T18:43:41;26.70;87.80
20167;DHT22;10243;49.118;8.508;2022-08-19T18:47:02;26.60;90.20
20167;DHT22;10243;49.118;8.508;2022-08-19T18:50:21;26.50;91.60
20167;DHT22;10243;49.118;8.508;2022-08-19T18:53:24;26.30;91.10
20167;DHT22;10243;49.118;8.508;2022-08-19T18:56:28;26.20;93.00
20167;DHT22;10243;49.118;8.508;2022-08-19T18:59:32;26.20;94.90
20167;DHT22;10243;49.118;8.508;2022-08-19T19:02:37;26.20;90.30
20167;DHT22;10243;49.118;8.508;2022-08-19T19:05:39;26.30;91.50
20167;DHT22;10243;49.118;8.508;2022-08-19T19:08:41;26.30;90.90
20167;DHT22;10243;49.118;8.508;2022-08-19T19:11:46;26.30;92.20
20167;DHT22;10243;49.118;8.508;2022-08-19T19:14:48;26.40;92.30
20167;DHT22;10243;49.118;8.508;2022-08-19T19:17:51;26.30;92.70
20167;DHT22;10243;49.118;8.508;2022-08-19T19:20:54;26.30;93.30